MMPRMMCL

Guest
Details From MMPR - LICENCIADO GUSTAVO DIAZ ORDAZ INTL
To MMCL - CULIACAN INTL
Flight Number -
Tags generated
Created
Modified
Stats Distance 277 nm / 513 km
Max Altitude 18,500 ft / 5,639 m
Waypoints 5
Social Downloads 0
Likes 0
Share VATSIM

Download

Looking for another format? Having issues loading an existing format? Contact us
Advertisement - Login to hide

Notes

Basic altitude profile: - Ascent Rate: 2500ft/min - Ascent Speed: 250kts - Cruise Altitude: 35000ft - Cruise Speed: 420kts - Descent Rate: 1500ft/min - Descent Speed: 250kts Options: - Use NATs: no - Use PACOTS: no - Use low airways: yes - Use high airways: no

Route

MMPR PVR V1 MZT V3 CUL MMCL

ID Type Via Altitude Latitude Longitude Leg Dist Tot Dist Heading (true) Name
O MMPR APT - 0 ft / 0 m 20.68007˚ -105.25415˚ - 0 nm - LICENCIADO GUSTAVO DIAZ ORDAZ INTL
PVR VOR - 100 ft / 30 m 20.67309˚ -105.25750˚ 0 nm 0 nm 204° / 204° VALLARTA VOR-DME
MZT VOR V1 (AWY-LO) 18,500 ft / 5,639 m 23.16052˚ -106.27096˚ 159 nm 160 nm 339° / 339° MAZATLAN VOR-DME
CUL VOR V3 (AWY-LO) 6,000 ft / 1,829 m 24.76443˚ -107.47728˚ 116 nm 277 nm 326° / 325° CULIACAN VOR-DME
O MMCL APT - 0 ft / 0 m 24.76566˚ -107.47611˚ 0 nm 277 nm 41° / 41° CULIACAN INTL

Altitude Profile

Advertisement - Login to hide

Weather


0- 5 10 15 20 25 30 35+ Temperature / ° C

Clouds and Precipitation
Forecast for 2018-05-22 12:00 UTC. Updated 3 hours ago

Ground ~20,000 ft ~40,000 ft Winds

MMPR

Details ICAO MMPR (PVR)
Name LICENCIADO GUSTAVO DIAZ ORDAZ INTL
Region Mexico
Timezone America/Mexico_City (UTC-5.0)
Stats Elevation 23 ft / 7 m (AMSL)
Location 20.680069° -105.254153°
Runways 1
Magnetic Variation 6.847° E

METAR

MMPR 221347Z 00000KT 15SM SKC 23/19 A2986

Decode

TAF

TAF AMD MMPR 220848Z 2209/2312 00000KT 6SM HZ BKN020 BKN070 TX31/2218Z TN23/2212Z TEMPO 2210/2214 BKN010 FM221600 00000KT 6SM HZ SCT020 FM221800 23010KT P6SM SKC FM230400 23005KT 6SM HZ SKC

Decode

Departure Runways

ID Width Length Bearing (true) Bearing (mag) Surface Threshold Offset Overrun Length
04 148 ft / 45 m 10,221 ft / 3,116 m 47.05° 40.20° Asphalt 0 ft / 0 m 185 ft / 56 m
22 148 ft / 45 m 10,221 ft / 3,116 m 227.06° 220.21° Asphalt 0 ft / 0 m 185 ft / 56 m

MMCL

Details ICAO MMCL (CUL)
Name CULIACAN INTL
Region Mexico
Timezone America/Mazatlan (UTC-6.0)
Stats Elevation 108 ft / 33 m (AMSL)
Location 24.765658° -107.476106°
Runways 1
Magnetic Variation 7.801° E

METAR

MMCL 221345Z 13004KT 10SM SKC 24/19 A2988 RMK HZY

Decode

TAF

Not found

Destination Runways

ID Width Length Bearing (true) Bearing (mag) Surface Threshold Offset Overrun Length
02 148 ft / 45 m 7,568 ft / 2,307 m 32.85° 25.05° Asphalt 0 ft / 0 m 0 ft / 0 m
20 148 ft / 45 m 7,568 ft / 2,307 m 212.86° 205.06° Asphalt 886 ft / 270 m 0 ft / 0 m

Popular Alternatives